Main page
METAR-TAF:

METAR-TAF

Airports :

Istanbul Sabiha Gökçen, Turkey

Sabiha Gökçen International Airport

latitude: 40-53-55N, longitude: 029-18-33E, elevation: 95 m

Current weather observation

The report was made 18 minutes ago, at 23:50 UTC
Wind 4 kt from the East/Northeast
Temperature 4°C
Humidity 93%
Pressure 1021 hPa
Visibility 10 km or more
no clouds below 1500 m and no cumulonimbus

METAR: LTFJ 262350Z 06004KT CAVOK 04/03 Q1021 NOSIG

Time: 02:08 (00:08 UTC)

Forecast

The report was made 1 hour and 28 minutes ago, at 22:40 UTC
Forecast valid from 27 at 00 UTC to 27 at 24 UTC
Wind 7 kt from the North/Northeast
Visibility 10 km or more
no clouds below 1500 m and no cumulonimbus
Probability 30% :
Temporary
from 27 at 03 UTC to 27 at 06 UTC
Visibility: 4000 m
Scattered clouds at a height of 1000 ft
mist

TAF: LTFJ 262240Z 2700/2724 03007KT CAVOK PROB30 TEMPO 2703/2706 4000 BR SCT010

Weather observations and forecasts of more than 4000 airports (METAR and TAF reports).

The available stations are represented by yellow and red dots on the map.

Hover mouse over dot to see the name of the station.

Then click to see weather observations and forecasts.

To change the map : click on the green buttons with a black cross to zoom in, on the green button with a dash to zoom out, or on the green arrows for adjacent maps.


METAR-TAF: